Gaines Landing, Arkansas
Current Conditions -  °F | °C
As of 4:53 PM on Thursday 27 Nov 2014 (Local Time) from KGLH Reporting Station
Clear Clear  
Wind Chill: 41°   Ceiling: Unl
Heat Index: 44°   Visibility: 7mi
Dew Point: 31°   Wind: 6mph
Humidity: 60%   Direction: 90°E
Pressure: 30.48"   Gusts: NA
Location:  33.3324°N, 91.3183°W
Report Text: KGLH 272253Z AUTO 09005KT 7SM CLR 07/M01 A3048 RMK AO2 SLP331 T00671006
Loading
Personal Weather Stations






























Interactive Weather Map New forecast layout! Learn more

10-Day Weather Forecast

Advertisements
Track Severe Weather on mobile